Terminal Aerodrome Forecast
Issued by NWS

Home | Current Version | Previous Version | Text Only | Print | Product List | Glossary On
Versions: 1 2 3 4 5 6 7 8 9 10 11 12 13
000
FTUS43 KSGF 181100
TAFJLN
TAF
KJLN 181120Z 1812/1912 02003KT 4SM BR SCT070
      TEMPO 1812/1813 2SM BR
     FM181400 06006KT P6SM SKC
     FM190100 14005KT P6SM SKC=

USA.gov is the U.S. government's official web portal to all federal, state and local government web resources and services.